North Loup, Nebraska
Current Conditions -  °F | °C
As of 10:53 PM on Monday 20 Oct 2014 (Local Time) from KODX Reporting Station
Clear Clear  
Wind Chill: 46°   Ceiling: Unl
Heat Index: 46°   Visibility: 10mi
Dew Point: 38°   Wind: 0mph
Humidity: 73%   Direction: NA
Pressure: 30.04"   Gusts: NA
Location:  41.5°N, 98.77°W
Report Text: KODX 210353Z AUTO 00000KT 10SM CLR 08/03 A3004 RMK AO2 SLP178 T00780033
Loading
Personal Weather Stations






























Interactive Weather Map
Tropical Storm Tracking
New forecast layout! Learn more

10-Day Weather Forecast

Advertisements
Track Severe Weather on mobile